Time;durP1;ratioP1;P1;durP2;ratioP2;P2;SDS_P1;SDS_P2;PMS_P1;PMS_P2;Temp;Humidity;BMP_temperature;BMP_pressure;BME280_temperature;BME280_humidity;BME280_pressure;Samples;Min_cycle;Max_cycle;Signal;HPM_P1;HPM_P2
2022/09/16 00:02:02;;;;;;;2.72;0.73;;;;;;;;;;6179532;23;20468;-46
2022/09/16 00:04:30;;;;;;;2.78;0.68;;;;;;;;;;6177938;23;20032;-51
2022/09/16 00:07:03;;;;;;;2.47;0.60;;;;;;;;;;6178955;23;20350;-51
2022/09/16 00:09:31;;;;;;;3.28;0.90;;;;;;;;;;6178914;23;20474;-47
2022/09/16 00:12:05;;;;;;;5.10;1.15;;;;;;;;;;6180188;23;20100;-52
2022/09/16 00:14:32;;;;;;;1.17;0.80;;;;;;;;;;6178202;23;20018;-54
2022/09/16 00:17:00;;;;;;;4.82;0.90;;;;;;;;;;6180058;23;20099;-58
2022/09/16 00:19:33;;;;;;;3.33;0.57;;;;;;;;;;6179011;23;20027;-74
2022/09/16 00:22:01;;;;;;;4.53;0.88;;;;;;;;;;6179136;23;20104;-75
2022/09/16 00:24:34;;;;;;;2.95;0.82;;;;;;;;;;6178824;23;20061;-73
2022/09/16 00:27:01;;;;;;;3.53;0.80;;;;;;;;;;6180048;23;20025;-74
2022/09/16 00:29:36;;;;;;;3.20;0.90;;;;;;;;;;6177975;23;20025;-75
2022/09/16 00:32:03;;;;;;;6.07;1.00;;;;;;;;;;6178871;23;20031;-74
2022/09/16 00:34:30;;;;;;;1.25;0.70;;;;;;;;;;6179004;23;20477;-62
2022/09/16 00:37:10;;;;;;;4.35;1.20;;;;;;;;;;6179101;23;20031;-47
2022/09/16 00:39:37;;;;;;;4.32;1.02;;;;;;;;;;6181030;23;20016;-57
2022/09/16 00:42:12;;;;;;;3.05;1.10;;;;;;;;;;6182208;23;20021;-58
2022/09/16 00:44:54;;;;;;;0.90;0.80;;;;;;;;;;6180447;23;20079;-55
2022/09/16 00:47:28;;;;;;;;;;;;;;;;;;6180358;23;20025;-58
2022/09/16 00:49:58;;;;;;;3.92;1.23;;;;;;;;;;6181848;23;19916;-56
2022/09/16 00:52:26;;;;;;;4.57;0.70;;;;;;;;;;6181452;23;20025;-57
2022/09/16 00:55:08;;;;;;;3.20;0.82;;;;;;;;;;6180926;23;20095;-74
2022/09/16 00:57:36;;;;;;;2.33;0.80;;;;;;;;;;6180488;23;20100;-68
2022/09/16 01:00:12;;;;;;;4.25;0.90;;;;;;;;;;6180716;23;20048;-68
2022/09/16 01:02:40;;;;;;;4.13;0.95;;;;;;;;;;6180856;23;20021;-68
2022/09/16 01:05:11;;;;;;;3.58;1.35;;;;;;;;;;6181060;23;20104;-69
2022/09/16 01:07:47;;;;;;;3.65;0.90;;;;;;;;;;6180965;23;20755;-69
2022/09/16 01:10:22;;;;;;;3.85;1.05;;;;;;;;;;6181035;23;20340;-69
2022/09/16 01:13:02;;;;;;;3.78;1.15;;;;;;;;;;6181154;23;20099;-58
2022/09/16 01:15:39;;;;;;;3.65;1.33;;;;;;;;;;6180621;23;20017;-60
2022/09/16 01:18:10;;;;;;;3.72;1.10;;;;;;;;;;6179931;23;20463;-48
2022/09/16 01:20:51;;;;;;;1.80;0.65;;;;;;;;;;6179576;23;20025;-48
2022/09/16 01:23:24;;;;;;;2.88;1.23;;;;;;;;;;6180672;23;20032;-48
2022/09/16 01:26:01;;;;;;;3.17;0.80;;;;;;;;;;6180267;23;20056;-49
2022/09/16 01:28:39;;;;;;;2.17;1.45;;;;;;;;;;6178983;23;20027;-51
2022/09/16 01:31:23;;;;;;;4.50;1.20;;;;;;;;;;6180032;23;20025;-57
2022/09/16 01:34:17;;;;;;;3.83;0.88;;;;;;;;;;6178888;23;20029;-47
2022/09/16 01:36:53;;;;;;;4.85;0.88;;;;;;;;;;6179467;23;20156;-59
2022/09/16 01:39:29;;;;;;;1.65;0.90;;;;;;;;;;6178876;23;20500;-60
2022/09/16 01:42:15;;;;;;;1.88;0.88;;;;;;;;;;6179843;23;20029;-60
2022/09/16 01:44:52;;;;;;;3.70;0.90;;;;;;;;;;6180324;23;20455;-59
2022/09/16 01:47:22;;;;;;;5.68;1.00;;;;;;;;;;6180402;23;20021;-60
2022/09/16 01:50:07;;;;;;;4.35;0.82;;;;;;;;;;6179683;23;20029;-60
2022/09/16 01:52:37;;;;;;;2.35;0.95;;;;;;;;;;6180528;23;20031;-49
2022/09/16 01:55:18;;;;;;;3.17;1.42;;;;;;;;;;6179819;23;20354;-46
2022/09/16 01:57:45;;;;;;;1.92;0.80;;;;;;;;;;6179916;23;20029;-47
2022/09/16 02:00:19;;;;;;;2.17;0.85;;;;;;;;;;6178864;23;20455;-48
2022/09/16 02:02:55;;;;;;;1.73;0.88;;;;;;;;;;6180327;23;20028;-47
2022/09/16 02:05:35;;;;;;;2.90;0.93;;;;;;;;;;6178924;23;20328;-49
2022/09/16 02:08:06;;;;;;;1.23;0.80;;;;;;;;;;6179534;23;20108;-48
2022/09/16 02:10:56;;;;;;;1.30;0.60;;;;;;;;;;6180691;23;20020;-46
2022/09/16 02:13:25;;;;;;;2.35;0.68;;;;;;;;;;6179137;23;20104;-59
2022/09/16 02:16:01;;;;;;;1.25;0.60;;;;;;;;;;6179822;23;20102;-54
2022/09/16 02:18:31;;;;;;;1.42;0.75;;;;;;;;;;6178793;23;20476;-58
2022/09/16 02:21:00;;;;;;;4.53;0.70;;;;;;;;;;6178707;23;20471;-60
2022/09/16 02:23:40;;;;;;;3.35;0.82;;;;;;;;;;6180519;23;20021;-59
2022/09/16 02:26:09;;;;;;;0.77;0.57;;;;;;;;;;6179433;23;20099;-56
2022/09/16 02:28:45;;;;;;;1.23;0.65;;;;;;;;;;6179819;23;20100;-53
2022/09/16 02:31:13;;;;;;;0.80;0.50;;;;;;;;;;6179691;23;20027;-69
2022/09/16 02:33:44;;;;;;;1.80;0.77;;;;;;;;;;6178286;23;20025;-68
2022/09/16 02:36:29;;;;;;;0.63;0.57;;;;;;;;;;6179106;23;20021;-68
2022/09/16 02:39:08;;;;;;;1.23;0.63;;;;;;;;;;6181237;23;20041;-68
2022/09/16 02:41:37;;;;;;;9.05;1.27;;;;;;;;;;6179611;23;20017;-68
2022/09/16 02:44:11;;;;;;;1.92;1.08;;;;;;;;;;6180108;23;20025;-68
2022/09/16 02:46:38;;;;;;;1.38;0.60;;;;;;;;;;6180879;23;20028;-68
2022/09/16 02:49:17;;;;;;;2.97;0.60;;;;;;;;;;6179272;23;20025;-56
2022/09/16 02:52:04;;;;;;;2.08;0.50;;;;;;;;;;6180179;23;20021;-68
2022/09/16 02:54:53;;;;;;;4.32;0.70;;;;;;;;;;6181080;23;20096;-68
2022/09/16 02:57:20;;;;;;;2.95;0.70;;;;;;;;;;6179737;23;20021;-69
2022/09/16 02:59:55;;;;;;;3.92;0.80;;;;;;;;;;6180185;23;20493;-67
2022/09/16 03:02:22;;;;;;;3.15;0.90;;;;;;;;;;6179650;23;20092;-69
2022/09/16 03:04:56;;;;;;;2.20;1.00;;;;;;;;;;6178841;23;20025;-68
2022/09/16 03:07:23;;;;;;;;;;;;;;;;;;6179873;23;20027;-59
2022/09/16 03:09:56;;;;;;;0.50;0.50;;;;;;;;;;6179701;23;20316;-60
2022/09/16 03:12:38;;;;;;;1.08;0.63;;;;;;;;;;6177974;23;20020;-50
2022/09/16 03:15:20;;;;;;;2.80;0.80;;;;;;;;;;6179281;23;20025;-53
2022/09/16 03:18:03;;;;;;;1.60;0.90;;;;;;;;;;6179979;23;20092;-51
2022/09/16 03:20:49;;;;;;;3.63;0.60;;;;;;;;;;6179308;23;20017;-46
2022/09/16 03:23:23;;;;;;;3.00;0.60;;;;;;;;;;6177880;23;20025;-46
2022/09/16 03:26:00;;;;;;;7.00;0.80;;;;;;;;;;6177287;23;20139;-68
2022/09/16 03:28:57;;;;;;;2.53;0.70;;;;;;;;;;6179116;23;20092;-60
2022/09/16 03:31:25;;;;;;;0.50;0.50;;;;;;;;;;6168454;23;20025;-60
2022/09/16 03:34:05;;;;;;;0.85;0.80;;;;;;;;;;6178527;23;20449;-60
2022/09/16 03:36:41;;;;;;;2.35;0.57;;;;;;;;;;6176635;23;20025;-61
2022/09/16 03:39:16;;;;;;;1.05;0.80;;;;;;;;;;6179268;23;20021;-60
2022/09/16 03:41:43;;;;;;;;;;;;;;;;;;6176761;23;20301;-61
2022/09/16 03:44:16;;;;;;;0.70;0.68;;;;;;;;;;6179547;23;19966;-60
2022/09/16 03:46:43;;;;;;;3.72;0.90;;;;;;;;;;6178022;23;20032;-52
2022/09/16 03:49:11;;;;;;;5.93;0.90;;;;;;;;;;6180480;23;20031;-73
2022/09/16 03:51:44;;;;;;;2.92;0.80;;;;;;;;;;6180314;23;20031;-73
2022/09/16 03:54:12;;;;;;;3.22;1.00;;;;;;;;;;6179634;23;20542;-73
2022/09/16 03:56:45;;;;;;;5.90;1.00;;;;;;;;;;6179301;23;20657;-72
2022/09/16 03:59:13;;;;;;;0.70;0.55;;;;;;;;;;6178217;23;20092;-73
2022/09/16 04:01:40;;;;;;;4.85;0.80;;;;;;;;;;6179255;23;20021;-72
2022/09/16 04:04:14;;;;;;;1.38;0.88;;;;;;;;;;6180127;23;20035;-48
2022/09/16 04:06:41;;;;;;;2.25;0.90;;;;;;;;;;6180296;23;20092;-62
2022/09/16 04:09:11;;;;;;;1.00;0.90;;;;;;;;;;6180776;23;20031;-68
2022/09/16 04:11:45;;;;;;;1.85;0.77;;;;;;;;;;6176968;23;20035;-68
2022/09/16 04:14:12;;;;;;;0.73;0.73;;;;;;;;;;6179435;23;20024;-68
2022/09/16 04:16:39;;;;;;;4.32;1.08;;;;;;;;;;6178537;23;20533;-68
2022/09/16 04:19:13;;;;;;;3.45;0.95;;;;;;;;;;6177274;23;20025;-68
2022/09/16 04:21:46;;;;;;;0.82;0.82;;;;;;;;;;6175217;23;20587;-67
2022/09/16 04:24:20;;;;;;;1.75;0.70;;;;;;;;;;6178526;23;20021;-71
2022/09/16 04:26:54;;;;;;;2.15;0.75;;;;;;;;;;6177165;23;20025;-47
2022/09/16 04:29:28;;;;;;;0.75;0.70;;;;;;;;;;6177153;23;20028;-48
2022/09/16 04:32:02;;;;;;;1.00;0.98;;;;;;;;;;6179562;23;20084;-47
2022/09/16 04:34:31;;;;;;;1.65;0.82;;;;;;;;;;6177342;23;20347;-49
2022/09/16 04:36:58;;;;;;;2.65;1.10;;;;;;;;;;6176752;23;20028;-52
2022/09/16 04:39:33;;;;;;;1.02;0.93;;;;;;;;;;6178187;23;20021;-49
2022/09/16 04:42:00;;;;;;;1.30;0.85;;;;;;;;;;6179636;23;20027;-52
2022/09/16 04:44:34;;;;;;;1.58;0.80;;;;;;;;;;6179798;23;20105;-53
2022/09/16 04:47:01;;;;;;;1.75;1.00;;;;;;;;;;6177760;23;20146;-46
2022/09/16 04:49:28;;;;;;;2.30;1.00;;;;;;;;;;6178954;23;20096;-46
2022/09/16 04:52:02;;;;;;;3.67;1.20;;;;;;;;;;6176627;23;20032;-48
2022/09/16 04:54:29;;;;;;;3.30;0.93;;;;;;;;;;6179300;23;20027;-46
2022/09/16 04:57:03;;;;;;;2.50;1.20;;;;;;;;;;6178788;23;20031;-46
2022/09/16 04:59:30;;;;;;;2.72;1.23;;;;;;;;;;6179113;23;20025;-47
2022/09/16 05:01:58;;;;;;;1.05;0.95;;;;;;;;;;6178787;23;20018;-47
2022/09/16 05:04:33;;;;;;;2.75;1.15;;;;;;;;;;6179287;23;20043;-67
2022/09/16 05:07:00;;;;;;;2.50;1.00;;;;;;;;;;6179553;23;20092;-71
2022/09/16 05:09:36;;;;;;;8.02;0.90;;;;;;;;;;6179453;23;20021;-71
2022/09/16 05:12:03;;;;;;;0.60;0.60;;;;;;;;;;6180264;23;20017;-71
2022/09/16 05:14:30;;;;;;;4.07;0.98;;;;;;;;;;6178575;23;20489;-72
2022/09/16 05:17:06;;;;;;;1.95;1.13;;;;;;;;;;6178018;23;20460;-71
2022/09/16 05:19:33;;;;;;;2.53;1.00;;;;;;;;;;6177802;23;20489;-71
2022/09/16 05:22:05;;;;;;;;;;;;;;;;;;6179626;23;20416;-54
2022/09/16 05:24:40;;;;;;;1.95;1.10;;;;;;;;;;6178243;23;20320;-46
2022/09/16 05:27:07;;;;;;;0.90;0.90;;;;;;;;;;6181030;23;20092;-53
2022/09/16 05:29:41;;;;;;;1.52;1.05;;;;;;;;;;6179510;23;20033;-47
2022/09/16 05:32:08;;;;;;;1.30;0.88;;;;;;;;;;6180610;23;20031;-47
2022/09/16 05:34:41;;;;;;;1.45;0.90;;;;;;;;;;6180575;23;20027;-49
2022/09/16 05:37:16;;;;;;;2.65;0.90;;;;;;;;;;6178836;23;20027;-46
2022/09/16 05:39:49;;;;;;;1.75;0.70;;;;;;;;;;6180744;23;20092;-63
2022/09/16 05:42:23;;;;;;;0.82;0.80;;;;;;;;;;6180574;23;20029;-71
2022/09/16 05:44:58;;;;;;;2.67;0.98;;;;;;;;;;6181369;23;20025;-63
2022/09/16 05:47:31;;;;;;;0.93;0.80;;;;;;;;;;6180971;23;20842;-63
2022/09/16 05:50:06;;;;;;;1.10;0.73;;;;;;;;;;6180795;23;20024;-62
2022/09/16 05:52:39;;;;;;;4.50;0.95;;;;;;;;;;6179765;23;20537;-63
2022/09/16 05:55:13;;;;;;;0.85;0.57;;;;;;;;;;6181826;23;20028;-63
2022/09/16 05:57:48;;;;;;;4.72;1.02;;;;;;;;;;6181962;23;20035;-71
2022/09/16 06:00:15;;;;;;;0.98;0.68;;;;;;;;;;6181388;23;20027;-58
2022/09/16 06:02:43;;;;;;;3.20;0.90;;;;;;;;;;6179191;23;20028;-59
2022/09/16 06:05:17;;;;;;;1.45;0.80;;;;;;;;;;6181456;23;20075;-58
2022/09/16 06:07:45;;;;;;;0.82;0.65;;;;;;;;;;6178360;23;20033;-59
2022/09/16 06:10:12;;;;;;;2.95;1.42;;;;;;;;;;6180173;23;20059;-59
2022/09/16 06:12:47;;;;;;;3.05;0.70;;;;;;;;;;6180772;23;20025;-60
2022/09/16 06:15:14;;;;;;;0.80;0.52;;;;;;;;;;6179875;23;20516;-59
2022/09/16 06:17:41;;;;;;;1.98;0.60;;;;;;;;;;6179549;23;20031;-64
2022/09/16 06:20:15;;;;;;;5.60;0.80;;;;;;;;;;6180883;23;20017;-57
2022/09/16 06:22:43;;;;;;;2.28;0.90;;;;;;;;;;6179017;23;20474;-48
2022/09/16 06:25:17;;;;;;;2.15;0.77;;;;;;;;;;6179094;23;20017;-50
2022/09/16 06:27:44;;;;;;;5.47;1.00;;;;;;;;;;6180377;23;20032;-46
2022/09/16 06:30:11;;;;;;;2.65;0.75;;;;;;;;;;6179543;23;20421;-48
2022/09/16 06:32:45;;;;;;;2.53;0.70;;;;;;;;;;6179833;23;20099;-48
2022/09/16 06:35:13;;;;;;;2.15;0.70;;;;;;;;;;6181363;23;20029;-48
2022/09/16 06:38:00;;;;;;;0.82;0.68;;;;;;;;;;6150597;23;20100;-59
2022/09/16 06:40:28;;;;;;;0.75;0.70;;;;;;;;;;6151954;23;20044;-45
2022/09/16 06:43:02;;;;;;;0.50;0.50;;;;;;;;;;6150468;23;20025;-46
2022/09/16 06:45:29;;;;;;;2.70;0.70;;;;;;;;;;6150716;23;20025;-46
2022/09/16 06:47:59;;;;;;;2.72;0.80;;;;;;;;;;6152280;23;20101;-47
2022/09/16 06:50:33;;;;;;;1.00;0.57;;;;;;;;;;6151261;23;20022;-47
2022/09/16 06:53:00;;;;;;;3.47;0.63;;;;;;;;;;6149774;23;20025;-47
2022/09/16 06:55:28;;;;;;;0.70;0.65;;;;;;;;;;6150838;23;20017;-46
2022/09/16 06:58:01;;;;;;;1.15;0.75;;;;;;;;;;6151137;23;20025;-47
2022/09/16 07:00:29;;;;;;;0.70;0.70;;;;;;;;;;6150237;23;20120;-69
2022/09/16 07:03:03;;;;;;;1.27;0.70;;;;;;;;;;6150822;23;20022;-69
2022/09/16 07:05:30;;;;;;;0.80;0.80;;;;;;;;;;6150824;23;20104;-69
2022/09/16 07:07:57;;;;;;;3.22;0.90;;;;;;;;;;6150239;23;20025;-69
2022/09/16 07:10:31;;;;;;;3.35;0.90;;;;;;;;;;6149892;23;20028;-69
2022/09/16 07:12:58;;;;;;;1.83;0.82;;;;;;;;;;6150908;23;20025;-69
2022/09/16 07:15:25;;;;;;;0.60;0.60;;;;;;;;;;6151084;23;20028;-54
2022/09/16 07:17:59;;;;;;;2.15;0.60;;;;;;;;;;6150871;23;20036;-45
2022/09/16 07:20:26;;;;;;;3.58;0.60;;;;;;;;;;6150863;23;20017;-45
2022/09/16 07:23:00;;;;;;;0.43;0.40;;;;;;;;;;6149926;23;20488;-48
2022/09/16 07:25:27;;;;;;;1.67;0.60;;;;;;;;;;6151026;23;20039;-45
2022/09/16 07:27:59;;;;;;;3.60;0.88;;;;;;;;;;6149906;23;20032;-45
2022/09/16 07:30:33;;;;;;;0.50;0.45;;;;;;;;;;6148776;23;20021;-52
2022/09/16 14:10:30;;;;;;;0.10;0.10;;;;;;;;;;6237442;23;20020;-59
2022/09/16 14:13:12;;;;;;;1.17;0.38;;;;;;;;;;6237056;23;20555;-48
2022/09/16 14:15:44;;;;;;;0.08;0.08;;;;;;;;;;6235241;23;20038;-65
2022/09/16 14:18:29;;;;;;;0.13;0.10;;;;;;;;;;6234960;23;20056;-75
2022/09/16 14:21:03;;;;;;;1.98;0.20;;;;;;;;;;6237794;23;20030;-75
2022/09/16 14:23:38;;;;;;;0.68;0.35;;;;;;;;;;6232398;23;20020;-74
2022/09/16 14:26:11;;;;;;;1.75;0.88;;;;;;;;;;6231358;23;20513;-76
2022/09/16 14:28:45;;;;;;;0.20;0.20;;;;;;;;;;6235964;23;20024;-75
2022/09/16 14:31:12;;;;;;;;;;;;;;;;;;6236489;23;20031;-74
2022/09/16 14:33:49;;;;;;;0.93;0.10;;;;;;;;;;6235666;23;20345;-57
2022/09/16 14:36:24;;;;;;;0.10;0.10;;;;;;;;;;6237155;23;20119;-74
2022/09/16 14:39:04;;;;;;;0.43;0.10;;;;;;;;;;6237389;23;20354;-74
2022/09/16 14:41:34;;;;;;;0.13;0.10;;;;;;;;;;6235642;23;20020;-74
2022/09/16 14:44:10;;;;;;;0.10;0.10;;;;;;;;;;6234276;23;20028;-75
2022/09/16 14:46:51;;;;;;;0.20;0.20;;;;;;;;;;6236896;23;20035;-74
2022/09/16 14:49:36;;;;;;;0.10;0.10;;;;;;;;;;6236591;23;20030;-74
2022/09/16 14:52:04;;;;;;;0.47;0.10;;;;;;;;;;6236738;23;20357;-58
2022/09/16 14:54:43;;;;;;;0.35;0.10;;;;;;;;;;6235814;23;20024;-55
2022/09/16 14:57:14;;;;;;;0.65;0.17;;;;;;;;;;6237560;23;20032;-66
2022/09/16 14:59:57;;;;;;;2.53;0.32;;;;;;;;;;6237165;23;20276;-66
2022/09/16 15:02:28;;;;;;;3.63;0.15;;;;;;;;;;6235879;23;20038;-66
2022/09/16 15:05:14;;;;;;;1.50;0.20;;;;;;;;;;6236987;23;20043;-66
2022/09/16 15:07:41;;;;;;;0.30;0.30;;;;;;;;;;6242422;22;20023;-66
2022/09/16 15:10:45;;;;;;;4.80;0.90;;;;;;;;;;6266540;22;20020;-64
2022/09/16 15:13:25;;;;;;;2.53;0.30;;;;;;;;;;6266566;22;20124;-59
2022/09/16 15:16:02;;;;;;;0.55;0.20;;;;;;;;;;6266745;22;20690;-57
2022/09/16 15:18:31;;;;;;;0.10;0.10;;;;;;;;;;6265871;22;20103;-56
2022/09/16 15:21:28;;;;;;;0.55;0.20;;;;;;;;;;6266881;22;20019;-52
2022/09/16 15:23:57;;;;;;;0.25;0.15;;;;;;;;;;6248074;22;20435;-52
2022/09/16 15:26:37;;;;;;;0.25;0.20;;;;;;;;;;6266986;22;20019;-57
2022/09/16 15:29:06;;;;;;;0.20;0.20;;;;;;;;;;6267416;22;20023;-56
2022/09/16 15:31:43;;;;;;;0.10;0.10;;;;;;;;;;6266160;22;20031;-46
2022/09/16 15:34:17;;;;;;;0.20;0.20;;;;;;;;;;6267138;22;20576;-57
2022/09/16 15:36:55;;;;;;;0.10;0.10;;;;;;;;;;6266601;22;20023;-57
2022/09/16 15:39:22;;;;;;;0.10;0.10;;;;;;;;;;6266259;22;20102;-58
2022/09/16 15:42:08;;;;;;;0.55;0.15;;;;;;;;;;6267487;22;20019;-58
2022/09/16 15:44:35;;;;;;;0.20;0.20;;;;;;;;;;6264634;22;20130;-58
2022/09/16 15:47:16;;;;;;;0.98;0.20;;;;;;;;;;6267041;22;20465;-58
2022/09/16 15:49:44;;;;;;;0.22;0.22;;;;;;;;;;6240358;22;20024;-47
2022/09/16 15:52:18;;;;;;;0.85;0.15;;;;;;;;;;6267628;22;20027;-60
2022/09/16 15:54:48;;;;;;;0.10;0.10;;;;;;;;;;6266509;22;20023;-60
2022/09/16 15:57:31;;;;;;;0.65;0.50;;;;;;;;;;6267195;22;20242;-60
2022/09/16 16:00:09;;;;;;;1.27;0.40;;;;;;;;;;6266837;22;20024;-60
2022/09/16 16:02:50;;;;;;;0.60;0.40;;;;;;;;;;6266975;22;20022;-60
2022/09/16 16:05:22;;;;;;;1.23;0.30;;;;;;;;;;6267272;22;20028;-60
2022/09/16 16:08:04;;;;;;;0.22;0.20;;;;;;;;;;6266526;22;20019;-60
2022/09/16 16:10:37;;;;;;;0.88;0.20;;;;;;;;;;6267573;22;20473;-60
2022/09/16 16:13:11;;;;;;;0.28;0.28;;;;;;;;;;6267982;22;20030;-49
2022/09/16 16:15:39;;;;;;;0.45;0.30;;;;;;;;;;6267391;22;20028;-49
2022/09/16 16:18:13;;;;;;;2.42;0.60;;;;;;;;;;6267952;22;20020;-50
2022/09/16 16:20:40;;;;;;;;;;;;;;;;;;6268848;22;20031;-45
2022/09/16 16:23:14;;;;;;;3.33;0.60;;;;;;;;;;6266342;22;19925;-45
2022/09/16 16:25:41;;;;;;;2.05;0.47;;;;;;;;;;6267940;22;20024;-52
2022/09/16 16:28:09;;;;;;;1.30;0.65;;;;;;;;;;6266327;22;20560;-45
2022/09/16 16:30:44;;;;;;;2.55;0.70;;;;;;;;;;6267730;22;20528;-60
2022/09/16 16:33:11;;;;;;;;;;;;;;;;;;6268075;22;20047;-60
2022/09/16 16:35:38;;;;;;;2.05;0.50;;;;;;;;;;6267031;22;19998;-60
2022/09/16 16:38:12;;;;;;;0.32;0.25;;;;;;;;;;6266548;22;20030;-60
2022/09/16 16:40:39;;;;;;;0.80;0.40;;;;;;;;;;6266788;22;20347;-59
2022/09/16 16:43:13;;;;;;;0.68;0.20;;;;;;;;;;6262902;22;20131;-62
2022/09/16 16:45:40;;;;;;;1.45;0.40;;;;;;;;;;6266344;22;20023;-65
2022/09/16 16:48:14;;;;;;;0.98;0.40;;;;;;;;;;6239666;22;20081;-59
2022/09/16 16:50:41;;;;;;;1.27;0.50;;;;;;;;;;6264089;22;20024;-57
2022/09/16 16:53:16;;;;;;;0.28;0.22;;;;;;;;;;6266703;22;20647;-54
2022/09/16 16:55:44;;;;;;;5.07;0.63;;;;;;;;;;6268673;22;20094;-55
2022/09/16 16:58:11;;;;;;;0.95;0.20;;;;;;;;;;6268615;22;20364;-57
2022/09/16 17:00:47;;;;;;;0.20;0.20;;;;;;;;;;6270219;22;20046;-55
2022/09/16 17:03:15;;;;;;;1.35;0.30;;;;;;;;;;6270129;22;20095;-57
2022/09/16 17:05:49;;;;;;;0.30;0.30;;;;;;;;;;6244635;22;20483;-59
2022/09/16 17:08:22;;;;;;;0.20;0.20;;;;;;;;;;6268284;22;20016;-46
2022/09/16 17:11:23;;;;;;;2.90;0.47;;;;;;;;;;6270565;22;20090;-74
2022/09/16 17:13:51;;;;;;;1.55;0.30;;;;;;;;;;6271197;22;20030;-75
2022/09/16 17:16:25;;;;;;;0.35;0.25;;;;;;;;;;6269344;22;20094;-75
2022/09/16 17:18:53;;;;;;;0.40;0.35;;;;;;;;;;6270510;22;20024;-75
2022/09/16 17:21:21;;;;;;;1.50;0.30;;;;;;;;;;6270737;22;20023;-75
2022/09/16 17:23:55;;;;;;;0.55;0.25;;;;;;;;;;6267188;22;20030;-59
2022/09/16 17:26:23;;;;;;;0.47;0.20;;;;;;;;;;6269761;22;20077;-47
2022/09/16 17:28:57;;;;;;;2.35;0.20;;;;;;;;;;6269342;22;20023;-60
2022/09/16 17:31:25;;;;;;;;;;;;;;;;;;6269740;22;20032;-60
2022/09/16 17:33:53;;;;;;;0.90;0.30;;;;;;;;;;6269094;22;19918;-59
2022/09/16 17:36:27;;;;;;;0.55;0.30;;;;;;;;;;6267844;22;20369;-61
2022/09/16 17:38:58;;;;;;;0.35;0.32;;;;;;;;;;6267727;22;20368;-60
2022/09/16 17:41:32;;;;;;;1.08;0.30;;;;;;;;;;6266669;22;20037;-60
2022/09/16 17:44:03;;;;;;;0.25;0.25;;;;;;;;;;6266937;22;20026;-49
2022/09/16 17:46:30;;;;;;;2.38;0.30;;;;;;;;;;6268063;22;20033;-59
2022/09/16 17:49:05;;;;;;;0.88;0.30;;;;;;;;;;6267604;22;20469;-60
2022/09/16 17:51:33;;;;;;;1.65;0.50;;;;;;;;;;6267652;22;20019;-59
2022/09/16 17:54:01;;;;;;;0.68;0.50;;;;;;;;;;6267966;22;20024;-59
2022/09/16 17:56:35;;;;;;;0.40;0.40;;;;;;;;;;6268411;22;20026;-59
2022/09/16 17:59:09;;;;;;;1.65;0.50;;;;;;;;;;6267891;22;20034;-59
2022/09/16 18:01:36;;;;;;;0.50;0.50;;;;;;;;;;6267958;22;20024;-55
2022/09/16 18:04:11;;;;;;;1.08;0.60;;;;;;;;;;6267416;22;20026;-60
2022/09/16 18:06:43;;;;;;;0.95;0.38;;;;;;;;;;6268315;22;20030;-58
2022/09/16 18:09:10;;;;;;;0.88;0.50;;;;;;;;;;6267657;22;20031;-57
2022/09/16 18:11:44;;;;;;;0.60;0.30;;;;;;;;;;6267833;22;20461;-58
2022/09/16 18:14:11;;;;;;;;;;;;;;;;;;6267804;22;20034;-57
2022/09/16 18:16:39;;;;;;;3.67;0.40;;;;;;;;;;6267913;22;19919;-56
2022/09/16 18:19:13;;;;;;;0.63;0.35;;;;;;;;;;6265617;22;20023;-58
2022/09/16 18:21:40;;;;;;;2.25;0.40;;;;;;;;;;6267008;22;20412;-65
2022/09/16 18:24:14;;;;;;;0.93;0.60;;;;;;;;;;6267380;22;20020;-49
2022/09/16 18:26:41;;;;;;;3.80;0.50;;;;;;;;;;6267848;22;20106;-74
2022/09/16 18:29:15;;;;;;;0.63;0.43;;;;;;;;;;6268406;22;20024;-61
2022/09/16 18:31:44;;;;;;;0.90;0.65;;;;;;;;;;6241996;22;20098;-74
2022/09/16 18:34:11;;;;;;;0.63;0.35;;;;;;;;;;6267033;22;20066;-74
2022/09/16 18:36:45;;;;;;;1.05;0.82;;;;;;;;;;6268223;22;20031;-74
2022/09/16 18:39:14;;;;;;;1.25;0.47;;;;;;;;;;6268922;22;20020;-74
2022/09/16 18:41:48;;;;;;;1.20;0.75;;;;;;;;;;6268685;22;20028;-74
2022/09/16 18:44:18;;;;;;;0.88;0.65;;;;;;;;;;6267503;22;20020;-54
2022/09/16 18:46:45;;;;;;;4.18;0.70;;;;;;;;;;6267863;22;20027;-53
2022/09/16 18:49:20;;;;;;;1.58;0.75;;;;;;;;;;6267143;22;20397;-56
2022/09/16 18:51:49;;;;;;;7.32;1.00;;;;;;;;;;6267833;22;20020;-57
2022/09/16 18:54:26;;;;;;;4.95;1.00;;;;;;;;;;6266335;22;20491;-55
2022/09/16 18:56:55;;;;;;;1.30;0.60;;;;;;;;;;6267789;22;20095;-55
2022/09/16 18:59:23;;;;;;;0.85;0.70;;;;;;;;;;6266075;22;20107;-47
2022/09/16 19:01:58;;;;;;;1.88;0.60;;;;;;;;;;6266748;22;20046;-60
2022/09/16 19:04:27;;;;;;;1.85;0.73;;;;;;;;;;6268112;22;20027;-49
2022/09/16 19:07:06;;;;;;;3.97;0.85;;;;;;;;;;6267314;22;20479;-47
2022/09/16 19:09:41;;;;;;;0.73;0.63;;;;;;;;;;6267431;22;20093;-46
2022/09/16 19:12:22;;;;;;;2.40;0.90;;;;;;;;;;6267617;22;20023;-50
2022/09/16 19:14:53;;;;;;;0.90;0.43;;;;;;;;;;6266363;22;20059;-51
2022/09/16 19:17:27;;;;;;;;;;;;;;;;;;6267076;22;20023;-47
2022/09/16 19:19:55;;;;;;;8.65;0.70;;;;;;;;;;6266199;22;20328;-74
2022/09/16 19:22:23;;;;;;;0.68;0.50;;;;;;;;;;6267501;22;20032;-65
2022/09/16 19:24:57;;;;;;;0.88;0.30;;;;;;;;;;6266773;22;20465;-64
2022/09/16 19:27:24;;;;;;;1.05;0.60;;;;;;;;;;6264671;22;20034;-65
2022/09/16 19:29:58;;;;;;;1.05;0.60;;;;;;;;;;6267630;22;20562;-65
2022/09/16 19:32:25;;;;;;;1.00;0.80;;;;;;;;;;6267404;22;20038;-65
2022/09/16 19:34:52;;;;;;;1.10;0.90;;;;;;;;;;6267717;22;20085;-64
2022/09/16 19:37:26;;;;;;;1.30;0.47;;;;;;;;;;6266855;22;20020;-54
2022/09/16 19:39:53;;;;;;;1.25;0.57;;;;;;;;;;6267153;22;20054;-60
2022/09/16 19:42:27;;;;;;;2.42;0.75;;;;;;;;;;6266241;22;20051;-58
2022/09/16 19:44:55;;;;;;;1.27;0.55;;;;;;;;;;6267339;22;20026;-57
2022/09/16 19:47:22;;;;;;;5.18;1.27;;;;;;;;;;6267816;22;20201;-56
2022/09/16 19:49:56;;;;;;;5.00;0.90;;;;;;;;;;6266271;22;20027;-56
2022/09/16 19:52:24;;;;;;;4.63;0.70;;;;;;;;;;6265965;22;20496;-59
2022/09/16 19:54:58;;;;;;;3.15;0.80;;;;;;;;;;6267748;22;20098;-55
2022/09/16 19:57:25;;;;;;;4.88;0.75;;;;;;;;;;6265802;22;20019;-74
2022/09/16 19:59:59;;;;;;;5.13;0.60;;;;;;;;;;6267084;22;20029;-75
2022/09/16 20:02:26;;;;;;;1.40;0.70;;;;;;;;;;6241918;22;20115;-75
2022/09/16 20:04:54;;;;;;;4.18;0.85;;;;;;;;;;6267374;22;20465;-75
2022/09/16 20:07:32;;;;;;;1.65;0.73;;;;;;;;;;6268049;22;20239;-76
2022/09/16 20:09:59;;;;;;;2.65;0.60;;;;;;;;;;6267368;22;20474;-76
2022/09/16 20:12:33;;;;;;;3.22;0.80;;;;;;;;;;6241398;22;20033;-75
2022/09/16 20:15:00;;;;;;;4.35;1.02;;;;;;;;;;6269005;22;20019;-47
2022/09/16 20:17:28;;;;;;;0.75;0.75;;;;;;;;;;6268172;22;20030;-48
2022/09/16 20:20:02;;;;;;;4.20;1.25;;;;;;;;;;6267166;22;20108;-61
2022/09/16 20:22:29;;;;;;;1.00;0.63;;;;;;;;;;6266547;22;20026;-60
2022/09/16 20:25:03;;;;;;;5.35;1.05;;;;;;;;;;6264877;22;20027;-60
2022/09/16 20:27:49;;;;;;;0.43;0.40;;;;;;;;;;6266632;22;20035;-61
2022/09/16 20:30:23;;;;;;;1.65;0.77;;;;;;;;;;6267013;22;20030;-60
2022/09/16 20:32:50;;;;;;;1.85;0.70;;;;;;;;;;6266640;22;20030;-60
2022/09/16 20:35:24;;;;;;;1.58;0.82;;;;;;;;;;6265696;22;20024;-47
2022/09/16 20:37:51;;;;;;;1.63;0.68;;;;;;;;;;6265510;22;20552;-46
2022/09/16 20:40:18;;;;;;;1.83;0.63;;;;;;;;;;6267527;22;20031;-56
2022/09/16 20:42:52;;;;;;;4.10;1.13;;;;;;;;;;6266208;22;20034;-57
2022/09/16 20:45:19;;;;;;;5.28;0.70;;;;;;;;;;6267847;22;20047;-57
2022/09/16 20:47:53;;;;;;;0.75;0.70;;;;;;;;;;6266774;22;20028;-54
2022/09/16 20:50:20;;;;;;;0.40;0.40;;;;;;;;;;6265767;22;20030;-57
2022/09/16 20:52:48;;;;;;;3.13;0.70;;;;;;;;;;6240047;22;20156;-54
2022/09/16 20:55:22;;;;;;;2.00;0.82;;;;;;;;;;6268067;22;20030;-57
2022/09/16 20:57:49;;;;;;;1.38;0.65;;;;;;;;;;6239471;22;20099;-59
2022/09/16 21:00:16;;;;;;;1.95;0.80;;;;;;;;;;6270137;22;20028;-59
2022/09/16 21:02:52;;;;;;;2.90;0.70;;;;;;;;;;6270558;22;20361;-60
2022/09/16 21:05:20;;;;;;;2.17;1.13;;;;;;;;;;6268055;22;20097;-60
2022/09/16 21:07:56;;;;;;;1.88;0.70;;;;;;;;;;6268182;22;20016;-59
2022/09/16 21:10:29;;;;;;;0.80;0.70;;;;;;;;;;6270862;22;20038;-59
2022/09/16 21:13:04;;;;;;;1.13;0.82;;;;;;;;;;6269230;22;20499;-56
2022/09/16 21:15:31;;;;;;;2.63;0.63;;;;;;;;;;6272214;22;20027;-75
2022/09/16 21:17:58;;;;;;;5.13;0.80;;;;;;;;;;6271483;22;20022;-56
2022/09/16 21:20:32;;;;;;;0.43;0.43;;;;;;;;;;6270325;22;20030;-56
2022/09/16 21:22:59;;;;;;;0.73;0.55;;;;;;;;;;6270296;22;20016;-57
2022/09/16 21:25:33;;;;;;;0.93;0.60;;;;;;;;;;6270411;22;20034;-57
2022/09/16 21:28:00;;;;;;;2.33;0.70;;;;;;;;;;6270910;22;20132;-55
2022/09/16 21:30:34;;;;;;;0.75;0.75;;;;;;;;;;6271413;22;20024;-55
2022/09/16 21:33:01;;;;;;;2.42;0.68;;;;;;;;;;6270051;22;20026;-52
2022/09/16 21:35:35;;;;;;;0.40;0.40;;;;;;;;;;6246351;22;20030;-58
2022/09/16 21:38:03;;;;;;;2.28;0.77;;;;;;;;;;6270284;22;20027;-57
2022/09/16 21:40:30;;;;;;;0.38;0.38;;;;;;;;;;6244637;22;20055;-55
2022/09/16 21:43:06;;;;;;;2.47;0.50;;;;;;;;;;6270524;22;20019;-55
2022/09/16 21:45:33;;;;;;;2.80;0.95;;;;;;;;;;6271463;22;20106;-55
2022/09/16 21:48:00;;;;;;;1.25;0.50;;;;;;;;;;6271687;22;20023;-57
2022/09/16 21:50:34;;;;;;;2.33;0.40;;;;;;;;;;6270146;22;20047;-59
2022/09/16 21:53:01;;;;;;;2.50;0.40;;;;;;;;;;6272141;22;20035;-66
2022/09/16 21:55:35;;;;;;;0.50;0.50;;;;;;;;;;6272072;22;20067;-61